sensor_id;sensor_type;location;lat;lon;timestamp;pressure;altitude;pressure_sealevel;temperature;humidity
67377;BME280;54261;46.086;6.588;2023-07-16T00:03:30;92691.19;;;21.14;38.51
67377;BME280;54261;46.086;6.588;2023-07-16T00:08:32;92705.41;;;21.45;37.69
67377;BME280;54261;46.086;6.588;2023-07-16T00:13:34;92706.66;;;20.99;38.29
67377;BME280;54261;46.086;6.588;2023-07-16T00:18:35;92697.50;;;20.77;37.78
67377;BME280;54261;46.086;6.588;2023-07-16T00:23:37;92694.06;;;19.36;40.22
67377;BME280;54261;46.086;6.588;2023-07-16T00:28:39;92680.91;;;19.11;40.15
67377;BME280;54261;46.086;6.588;2023-07-16T00:33:41;92697.94;;;19.35;39.75
67377;BME280;54261;46.086;6.588;2023-07-16T00:38:43;92680.72;;;20.22;37.87
67377;BME280;54261;46.086;6.588;2023-07-16T00:43:46;92644.38;;;20.11;37.64
67377;BME280;54261;46.086;6.588;2023-07-16T00:48:48;92687.75;;;19.28;38.94
67377;BME280;54261;46.086;6.588;2023-07-16T00:53:50;92662.59;;;19.69;38.18
67377;BME280;54261;46.086;6.588;2023-07-16T00:58:52;92670.97;;;20.66;36.34
67377;BME280;54261;46.086;6.588;2023-07-16T01:03:55;92663.72;;;20.85;36.36
67377;BME280;54261;46.086;6.588;2023-07-16T01:09:02;92670.84;;;20.14;37.57
67377;BME280;54261;46.086;6.588;2023-07-16T01:14:05;92664.91;;;20.88;36.55
67377;BME280;54261;46.086;6.588;2023-07-16T01:19:09;92677.50;;;19.79;38.55
67377;BME280;54261;46.086;6.588;2023-07-16T01:34:33;92694.16;;;19.73;37.84
67377;BME280;54261;46.086;6.588;2023-07-16T01:39:36;92689.66;;;19.54;38.02
67377;BME280;54261;46.086;6.588;2023-07-16T01:44:39;92676.94;;;18.81;38.84
67377;BME280;54261;46.086;6.588;2023-07-16T01:49:41;92682.88;;;17.74;41.22
67377;BME280;54261;46.086;6.588;2023-07-16T01:54:44;92688.59;;;18.31;39.61
67377;BME280;54261;46.086;6.588;2023-07-16T01:59:46;92671.06;;;18.52;39.53
67377;BME280;54261;46.086;6.588;2023-07-16T02:04:48;92702.47;;;18.73;39.23
67377;BME280;54261;46.086;6.588;2023-07-16T02:09:50;92697.09;;;18.30;39.14
67377;BME280;54261;46.086;6.588;2023-07-16T02:14:52;92690.06;;;18.05;39.66
67377;BME280;54261;46.086;6.588;2023-07-16T02:19:54;92701.16;;;18.86;38.53
67377;BME280;54261;46.086;6.588;2023-07-16T02:24:56;92703.03;;;18.16;39.71
67377;BME280;54261;46.086;6.588;2023-07-16T02:29:57;92705.44;;;18.64;38.53
67377;BME280;54261;46.086;6.588;2023-07-16T02:35:00;92675.19;;;18.93;37.80
67377;BME280;54261;46.086;6.588;2023-07-16T02:40:02;92712.28;;;19.62;36.83
67377;BME280;54261;46.086;6.588;2023-07-16T02:45:05;92715.66;;;19.82;36.51
67377;BME280;54261;46.086;6.588;2023-07-16T02:50:10;92711.41;;;19.85;36.23
67377;BME280;54261;46.086;6.588;2023-07-16T02:55:12;92712.88;;;20.13;35.98
67377;BME280;54261;46.086;6.588;2023-07-16T03:00:14;92706.88;;;20.34;35.83
67377;BME280;54261;46.086;6.588;2023-07-16T03:05:16;92724.06;;;20.83;35.29
67377;BME280;54261;46.086;6.588;2023-07-16T03:10:18;92707.38;;;20.06;36.18
67377;BME280;54261;46.086;6.588;2023-07-16T03:15:20;92683.16;;;20.80;34.84
67377;BME280;54261;46.086;6.588;2023-07-16T03:20:22;92718.38;;;20.99;34.82
67377;BME280;54261;46.086;6.588;2023-07-16T03:25:24;92716.56;;;21.22;34.59
67377;BME280;54261;46.086;6.588;2023-07-16T03:30:26;92698.03;;;21.49;34.04
67377;BME280;54261;46.086;6.588;2023-07-16T03:35:28;92701.59;;;21.64;33.67
67377;BME280;54261;46.086;6.588;2023-07-16T03:40:30;92686.09;;;21.90;33.87
67377;BME280;54261;46.086;6.588;2023-07-16T03:45:32;92698.66;;;22.06;34.14
67377;BME280;54261;46.086;6.588;2023-07-16T03:50:34;92668.66;;;22.27;33.82
67377;BME280;54261;46.086;6.588;2023-07-16T03:55:36;92672.94;;;22.25;33.88
67377;BME280;54261;46.086;6.588;2023-07-16T04:00:38;92698.66;;;22.02;33.96
67377;BME280;54261;46.086;6.588;2023-07-16T04:05:42;92703.38;;;22.12;33.63
67377;BME280;54261;46.086;6.588;2023-07-16T04:10:44;92668.97;;;22.01;33.63
67377;BME280;54261;46.086;6.588;2023-07-16T04:15:46;92701.66;;;21.08;34.54
67377;BME280;54261;46.086;6.588;2023-07-16T04:20:47;92698.53;;;21.69;33.85
67377;BME280;54261;46.086;6.588;2023-07-16T04:25:53;92707.13;;;21.71;33.83
67377;BME280;54261;46.086;6.588;2023-07-16T04:30:55;92701.31;;;21.91;33.44
67377;BME280;54261;46.086;6.588;2023-07-16T04:35:57;92691.53;;;21.79;33.27
67377;BME280;54261;46.086;6.588;2023-07-16T04:40:59;92711.97;;;22.11;33.22
67377;BME280;54261;46.086;6.588;2023-07-16T04:46:01;92703.00;;;22.18;32.97
67377;BME280;54261;46.086;6.588;2023-07-16T04:51:03;92691.53;;;21.76;33.26
67377;BME280;54261;46.086;6.588;2023-07-16T04:56:11;92718.63;;;20.83;34.86
67377;BME280;54261;46.086;6.588;2023-07-16T05:01:14;92739.06;;;19.56;37.32
67377;BME280;54261;46.086;6.588;2023-07-16T05:06:15;92741.00;;;19.56;38.25
67377;BME280;54261;46.086;6.588;2023-07-16T05:11:18;92746.63;;;20.39;36.93
67377;BME280;54261;46.086;6.588;2023-07-16T05:16:20;92730.63;;;20.79;36.16
67377;BME280;54261;46.086;6.588;2023-07-16T05:21:22;92735.63;;;21.18;35.46
67377;BME280;54261;46.086;6.588;2023-07-16T05:26:24;92729.84;;;21.23;35.35
67377;BME280;54261;46.086;6.588;2023-07-16T05:31:26;92725.75;;;20.99;35.45
67377;BME280;54261;46.086;6.588;2023-07-16T05:36:28;92716.16;;;21.20;35.58
67377;BME280;54261;46.086;6.588;2023-07-16T05:41:30;92718.38;;;21.63;34.85
67377;BME280;54261;46.086;6.588;2023-07-16T05:46:33;92686.06;;;20.56;35.71
67377;BME280;54261;46.086;6.588;2023-07-16T05:51:35;92717.97;;;20.14;36.49
67377;BME280;54261;46.086;6.588;2023-07-16T05:56:37;92657.41;;;18.72;37.76
67377;BME280;54261;46.086;6.588;2023-07-16T07:41:06;92719.13;;;15.57;61.63
67377;BME280;54261;46.086;6.588;2023-07-16T07:46:08;92681.41;;;16.85;50.72
67377;BME280;54261;46.086;6.588;2023-07-16T07:51:11;92723.13;;;18.54;48.71
67377;BME280;54261;46.086;6.588;2023-07-16T07:56:13;92716.63;;;19.67;43.45
67377;BME280;54261;46.086;6.588;2023-07-16T08:01:15;92728.53;;;20.20;42.02
67377;BME280;54261;46.086;6.588;2023-07-16T08:06:17;92719.34;;;20.35;41.51
67377;BME280;54261;46.086;6.588;2023-07-16T08:11:19;92704.81;;;20.62;40.88
67377;BME280;54261;46.086;6.588;2023-07-16T08:16:21;92721.66;;;21.23;40.33
67377;BME280;54261;46.086;6.588;2023-07-16T08:21:23;92730.53;;;21.80;39.77
67377;BME280;54261;46.086;6.588;2023-07-16T08:26:25;92725.09;;;20.26;38.20
67377;BME280;54261;46.086;6.588;2023-07-16T08:31:27;92720.34;;;21.06;39.16
67377;BME280;54261;46.086;6.588;2023-07-16T08:36:29;92725.59;;;20.36;40.32
67377;BME280;54261;46.086;6.588;2023-07-16T08:41:31;92739.84;;;21.08;38.53
67377;BME280;54261;46.086;6.588;2023-07-16T08:46:34;92741.31;;;21.51;37.87
67377;BME280;54261;46.086;6.588;2023-07-16T08:51:37;92736.31;;;21.60;38.62
67377;BME280;54261;46.086;6.588;2023-07-16T08:56:40;92742.06;;;20.50;39.48
67377;BME280;54261;46.086;6.588;2023-07-16T09:01:42;92746.91;;;20.68;38.78
67377;BME280;54261;46.086;6.588;2023-07-16T09:06:45;92724.06;;;20.83;39.40
67377;BME280;54261;46.086;6.588;2023-07-16T09:11:48;92739.84;;;21.68;38.20
67377;BME280;54261;46.086;6.588;2023-07-16T09:16:51;92740.34;;;21.92;37.27
67377;BME280;54261;46.086;6.588;2023-07-16T09:21:53;92734.69;;;22.51;36.16
67377;BME280;54261;46.086;6.588;2023-07-16T09:26:55;92735.06;;;22.43;36.15
67377;BME280;54261;46.086;6.588;2023-07-16T09:32:00;92723.31;;;22.27;36.32
67377;BME280;54261;46.086;6.588;2023-07-16T09:37:04;92723.59;;;20.74;38.72
67377;BME280;54261;46.086;6.588;2023-07-16T09:42:08;92723.28;;;21.35;38.10
67377;BME280;54261;46.086;6.588;2023-07-16T09:47:11;92729.66;;;21.54;38.06
67377;BME280;54261;46.086;6.588;2023-07-16T09:52:13;92736.94;;;21.39;38.59
67377;BME280;54261;46.086;6.588;2023-07-16T09:57:17;92715.09;;;20.03;39.33
67377;BME280;54261;46.086;6.588;2023-07-16T10:02:20;92728.13;;;19.53;41.12
67377;BME280;54261;46.086;6.588;2023-07-16T10:07:24;92728.59;;;20.23;40.21
67377;BME280;54261;46.086;6.588;2023-07-16T10:12:27;92723.88;;;19.28;40.05
67377;BME280;54261;46.086;6.588;2023-07-16T10:17:31;92721.47;;;20.53;37.65
67377;BME280;54261;46.086;6.588;2023-07-16T10:22:36;92717.13;;;19.18;41.36
67377;BME280;54261;46.086;6.588;2023-07-16T10:27:38;92717.31;;;19.91;40.34
67377;BME280;54261;46.086;6.588;2023-07-16T10:32:41;92686.63;;;19.59;39.51
67377;BME280;54261;46.086;6.588;2023-07-16T10:37:43;92708.06;;;20.78;38.17
67377;BME280;54261;46.086;6.588;2023-07-16T10:42:45;92699.03;;;20.25;36.89
67377;BME280;54261;46.086;6.588;2023-07-16T10:47:53;92711.41;;;19.85;37.61
67377;BME280;54261;46.086;6.588;2023-07-16T10:52:56;92707.00;;;19.73;38.61
67377;BME280;54261;46.086;6.588;2023-07-16T10:57:58;92707.31;;;20.81;36.94
67377;BME280;54261;46.086;6.588;2023-07-16T11:03:00;92696.59;;;21.07;36.55
67377;BME280;54261;46.086;6.588;2023-07-16T11:08:02;92692.06;;;21.29;35.43
67377;BME280;54261;46.086;6.588;2023-07-16T11:13:04;92670.66;;;19.96;37.75
67377;BME280;54261;46.086;6.588;2023-07-16T11:18:07;92680.63;;;21.87;34.92
67377;BME280;54261;46.086;6.588;2023-07-16T11:23:10;92676.50;;;22.40;34.92
67377;BME280;54261;46.086;6.588;2023-07-16T11:28:13;92679.25;;;22.80;34.70
67377;BME280;54261;46.086;6.588;2023-07-16T11:33:15;92670.63;;;23.18;33.01
67377;BME280;54261;46.086;6.588;2023-07-16T11:38:17;92649.16;;;22.62;33.33
67377;BME280;54261;46.086;6.588;2023-07-16T11:43:20;92668.28;;;23.27;32.87
67377;BME280;54261;46.086;6.588;2023-07-16T11:48:22;92658.41;;;23.59;31.46
67377;BME280;54261;46.086;6.588;2023-07-16T11:53:24;92653.50;;;22.77;32.22
67377;BME280;54261;46.086;6.588;2023-07-16T11:58:26;92597.41;;;24.26;31.56
67377;BME280;54261;46.086;6.588;2023-07-16T12:03:29;92648.75;;;23.10;32.63
67377;BME280;54261;46.086;6.588;2023-07-16T12:08:31;92632.28;;;21.98;34.34
67377;BME280;54261;46.086;6.588;2023-07-16T12:13:33;92626.13;;;22.92;34.99
67377;BME280;54261;46.086;6.588;2023-07-16T12:18:35;92624.72;;;23.73;33.68
67377;BME280;54261;46.086;6.588;2023-07-16T12:23:38;92634.53;;;24.41;32.44
67377;BME280;54261;46.086;6.588;2023-07-16T12:28:40;92647.97;;;24.17;33.41
67377;BME280;54261;46.086;6.588;2023-07-16T12:33:42;92643.06;;;23.83;32.91
67377;BME280;54261;46.086;6.588;2023-07-16T12:38:44;92645.66;;;22.72;34.11
67377;BME280;54261;46.086;6.588;2023-07-16T12:43:47;92647.22;;;22.95;35.15
67377;BME280;54261;46.086;6.588;2023-07-16T12:48:49;92635.44;;;23.38;34.14
67377;BME280;54261;46.086;6.588;2023-07-16T12:53:51;92629.59;;;24.14;34.40
67377;BME280;54261;46.086;6.588;2023-07-16T12:58:52;92628.91;;;25.09;31.90
67377;BME280;54261;46.086;6.588;2023-07-16T13:03:54;92638.13;;;25.26;31.71
67377;BME280;54261;46.086;6.588;2023-07-16T13:08:56;92628.28;;;24.86;32.60
67377;BME280;54261;46.086;6.588;2023-07-16T13:13:58;92650.03;;;25.12;32.54
67377;BME280;54261;46.086;6.588;2023-07-16T13:19:00;92637.66;;;24.96;32.82
67377;BME280;54261;46.086;6.588;2023-07-16T13:24:02;92622.28;;;24.57;31.69
67377;BME280;54261;46.086;6.588;2023-07-16T13:29:04;92620.56;;;25.54;30.04
67377;BME280;54261;46.086;6.588;2023-07-16T13:34:06;92628.53;;;25.41;31.17
67377;BME280;54261;46.086;6.588;2023-07-16T13:39:08;92632.53;;;23.71;33.48
67377;BME280;54261;46.086;6.588;2023-07-16T13:44:11;92624.19;;;25.09;31.64
67377;BME280;54261;46.086;6.588;2023-07-16T13:49:13;92617.19;;;25.74;30.92
67377;BME280;54261;46.086;6.588;2023-07-16T13:54:15;92597.75;;;25.61;30.48
67377;BME280;54261;46.086;6.588;2023-07-16T13:59:17;92617.13;;;25.46;31.75
67377;BME280;54261;46.086;6.588;2023-07-16T14:04:18;92589.09;;;25.62;30.90
67377;BME280;54261;46.086;6.588;2023-07-16T14:09:20;92618.66;;;25.13;31.11
67377;BME280;54261;46.086;6.588;2023-07-16T14:14:22;92622.53;;;25.54;31.60
67377;BME280;54261;46.086;6.588;2023-07-16T14:19:24;92632.63;;;25.26;29.89
67377;BME280;54261;46.086;6.588;2023-07-16T14:24:26;92622.41;;;25.96;29.70
67377;BME280;54261;46.086;6.588;2023-07-16T14:29:28;92614.09;;;27.06;28.95
67377;BME280;54261;46.086;6.588;2023-07-16T14:34:31;92620.97;;;28.52;27.22
67377;BME280;54261;46.086;6.588;2023-07-16T14:39:32;92621.59;;;27.25;27.59
67377;BME280;54261;46.086;6.588;2023-07-16T14:44:34;92623.84;;;28.65;27.03
67377;BME280;54261;46.086;6.588;2023-07-16T14:49:36;92617.69;;;28.24;27.54
67377;BME280;54261;46.086;6.588;2023-07-16T14:54:38;92630.13;;;28.98;25.67
67377;BME280;54261;46.086;6.588;2023-07-16T14:59:40;92628.31;;;27.85;26.35
67377;BME280;54261;46.086;6.588;2023-07-16T15:04:42;92629.13;;;29.68;24.52
67377;BME280;54261;46.086;6.588;2023-07-16T15:09:44;92619.41;;;31.19;23.85
67377;BME280;54261;46.086;6.588;2023-07-16T15:14:46;92613.72;;;31.00;23.80
67377;BME280;54261;46.086;6.588;2023-07-16T15:19:48;92611.38;;;29.82;24.58
67377;BME280;54261;46.086;6.588;2023-07-16T15:24:50;92619.19;;;30.52;24.35
67377;BME280;54261;46.086;6.588;2023-07-16T15:29:52;92609.09;;;30.06;24.85
67377;BME280;54261;46.086;6.588;2023-07-16T15:34:54;92612.38;;;30.79;23.35
67377;BME280;54261;46.086;6.588;2023-07-16T15:39:55;92610.22;;;30.61;23.93
67377;BME280;54261;46.086;6.588;2023-07-16T15:45:00;92615.81;;;31.89;22.52
67377;BME280;54261;46.086;6.588;2023-07-16T15:50:02;92621.16;;;31.26;23.19
67377;BME280;54261;46.086;6.588;2023-07-16T15:55:04;92543.47;;;32.37;21.51
67377;BME280;54261;46.086;6.588;2023-07-16T16:00:07;92580.22;;;32.28;21.87
67377;BME280;54261;46.086;6.588;2023-07-16T16:05:16;92593.09;;;32.03;21.64
67377;BME280;54261;46.086;6.588;2023-07-16T16:10:18;92604.59;;;31.48;22.20
67377;BME280;54261;46.086;6.588;2023-07-16T16:15:20;92517.47;;;30.56;23.14
67377;BME280;54261;46.086;6.588;2023-07-16T16:20:21;92599.91;;;30.35;23.72
67377;BME280;54261;46.086;6.588;2023-07-16T16:25:23;92600.13;;;30.67;23.53
67377;BME280;54261;46.086;6.588;2023-07-16T16:30:25;92600.44;;;29.91;23.42
67377;BME280;54261;46.086;6.588;2023-07-16T16:35:28;92596.94;;;30.43;23.77
67377;BME280;54261;46.086;6.588;2023-07-16T16:40:31;92602.25;;;29.39;24.79
67377;BME280;54261;46.086;6.588;2023-07-16T16:45:33;92603.41;;;29.84;24.19
67377;BME280;54261;46.086;6.588;2023-07-16T16:50:40;92611.03;;;29.93;23.90
67377;BME280;54261;46.086;6.588;2023-07-16T16:55:42;92587.78;;;29.05;24.51
67377;BME280;54261;46.086;6.588;2023-07-16T17:00:44;92605.56;;;28.54;25.70
67377;BME280;54261;46.086;6.588;2023-07-16T17:05:50;92603.31;;;29.28;24.67
67377;BME280;54261;46.086;6.588;2023-07-16T17:10:54;92624.06;;;29.20;25.11
67377;BME280;54261;46.086;6.588;2023-07-16T17:15:58;92633.94;;;29.34;24.94
67377;BME280;54261;46.086;6.588;2023-07-16T17:20:59;92632.19;;;28.94;25.80
67377;BME280;54261;46.086;6.588;2023-07-16T17:26:01;92608.13;;;27.51;26.74
67377;BME280;54261;46.086;6.588;2023-07-16T17:31:03;92624.28;;;27.90;26.72
67377;BME280;54261;46.086;6.588;2023-07-16T17:36:05;92633.78;;;28.79;26.00
67377;BME280;54261;46.086;6.588;2023-07-16T17:41:07;92635.94;;;28.34;26.93
67377;BME280;54261;46.086;6.588;2023-07-16T17:46:09;92627.38;;;28.49;26.71
67377;BME280;54261;46.086;6.588;2023-07-16T17:51:11;92612.16;;;28.07;25.83
67377;BME280;54261;46.086;6.588;2023-07-16T17:56:14;92647.34;;;28.53;25.77
67377;BME280;54261;46.086;6.588;2023-07-16T18:01:18;92642.97;;;27.82;26.78
67377;BME280;54261;46.086;6.588;2023-07-16T18:06:21;92640.38;;;27.10;27.88
67377;BME280;54261;46.086;6.588;2023-07-16T18:11:23;92639.50;;;27.57;27.17
67377;BME280;54261;46.086;6.588;2023-07-16T18:16:24;92648.69;;;28.28;26.71
67377;BME280;54261;46.086;6.588;2023-07-16T18:21:27;92654.63;;;28.26;26.27
67377;BME280;54261;46.086;6.588;2023-07-16T18:26:43;92645.53;;;28.46;26.22
67377;BME280;54261;46.086;6.588;2023-07-16T18:31:45;92652.53;;;27.33;27.63
67377;BME280;54261;46.086;6.588;2023-07-16T18:36:47;92650.75;;;26.47;28.51
67377;BME280;54261;46.086;6.588;2023-07-16T18:41:49;92668.28;;;26.85;28.03
67377;BME280;54261;46.086;6.588;2023-07-16T18:46:51;92679.38;;;26.50;28.56
67377;BME280;54261;46.086;6.588;2023-07-16T18:51:53;92668.59;;;26.08;29.34
67377;BME280;54261;46.086;6.588;2023-07-16T18:56:55;92681.78;;;26.21;28.93
67377;BME280;54261;46.086;6.588;2023-07-16T19:01:57;92656.25;;;26.51;28.44
67377;BME280;54261;46.086;6.588;2023-07-16T19:07:00;92697.28;;;26.89;28.15
67377;BME280;54261;46.086;6.588;2023-07-16T19:12:02;92670.38;;;26.50;28.63
67377;BME280;54261;46.086;6.588;2023-07-16T19:17:12;92711.34;;;26.95;28.14
67377;BME280;54261;46.086;6.588;2023-07-16T19:22:14;92716.63;;;26.86;28.22
67377;BME280;54261;46.086;6.588;2023-07-16T19:27:16;92712.41;;;26.78;28.38
67377;BME280;54261;46.086;6.588;2023-07-16T19:32:18;92717.94;;;26.78;28.37
67377;BME280;54261;46.086;6.588;2023-07-16T19:37:20;92714.38;;;26.53;28.77
67377;BME280;54261;46.086;6.588;2023-07-16T19:42:22;92730.88;;;26.53;28.79
67377;BME280;54261;46.086;6.588;2023-07-16T19:47:25;92730.75;;;26.29;28.79
67377;BME280;54261;46.086;6.588;2023-07-16T19:52:27;92731.66;;;26.19;28.95
67377;BME280;54261;46.086;6.588;2023-07-16T19:57:30;92749.16;;;26.01;29.24
67377;BME280;54261;46.086;6.588;2023-07-16T20:02:36;92757.31;;;26.09;29.23
67377;BME280;54261;46.086;6.588;2023-07-16T20:07:38;92755.81;;;26.35;28.72
67377;BME280;54261;46.086;6.588;2023-07-16T20:12:39;92763.38;;;26.27;29.11
67377;BME280;54261;46.086;6.588;2023-07-16T20:17:41;92765.22;;;26.38;29.08
67377;BME280;54261;46.086;6.588;2023-07-16T20:22:43;92768.91;;;26.58;28.86
67377;BME280;54261;46.086;6.588;2023-07-16T20:27:53;92754.00;;;26.56;28.63
67377;BME280;54261;46.086;6.588;2023-07-16T20:32:55;92777.81;;;26.66;28.87
67377;BME280;54261;46.086;6.588;2023-07-16T20:37:57;92781.50;;;26.21;28.55
67377;BME280;54261;46.086;6.588;2023-07-16T20:43:03;92788.63;;;25.80;29.54
67377;BME280;54261;46.086;6.588;2023-07-16T20:48:05;92788.22;;;25.82;28.87
67377;BME280;54261;46.086;6.588;2023-07-16T20:53:07;92791.31;;;25.42;29.36
67377;BME280;54261;46.086;6.588;2023-07-16T20:58:09;92798.09;;;25.75;29.68
67377;BME280;54261;46.086;6.588;2023-07-16T21:03:11;92786.00;;;25.20;30.31
67377;BME280;54261;46.086;6.588;2023-07-16T21:08:13;92782.75;;;24.79;30.64
67377;BME280;54261;46.086;6.588;2023-07-16T21:13:15;92767.44;;;24.86;30.31
67377;BME280;54261;46.086;6.588;2023-07-16T21:18:17;92777.03;;;25.12;30.00
67377;BME280;54261;46.086;6.588;2023-07-16T21:23:21;92818.81;;;24.82;30.44
67377;BME280;54261;46.086;6.588;2023-07-16T21:28:25;92801.19;;;24.75;30.92
67377;BME280;54261;46.086;6.588;2023-07-16T21:33:26;92819.75;;;24.46;31.10
67377;BME280;54261;46.086;6.588;2023-07-16T21:38:28;92829.63;;;24.25;31.59
67377;BME280;54261;46.086;6.588;2023-07-16T21:43:30;92802.72;;;23.80;31.48
67377;BME280;54261;46.086;6.588;2023-07-16T21:48:32;92842.50;;;24.32;31.41
67377;BME280;54261;46.086;6.588;2023-07-16T21:53:34;92841.81;;;24.02;31.47
67377;BME280;54261;46.086;6.588;2023-07-16T21:58:36;92838.19;;;24.45;30.68
67377;BME280;54261;46.086;6.588;2023-07-16T22:03:38;92840.78;;;24.74;30.39
67377;BME280;54261;46.086;6.588;2023-07-16T22:08:40;92842.72;;;24.77;30.45
67377;BME280;54261;46.086;6.588;2023-07-16T22:13:42;92864.69;;;24.74;30.62
67377;BME280;54261;46.086;6.588;2023-07-16T22:18:44;92852.25;;;24.51;30.97
67377;BME280;54261;46.086;6.588;2023-07-16T22:23:46;92856.91;;;24.61;31.35
67377;BME280;54261;46.086;6.588;2023-07-16T22:28:48;92852.22;;;24.58;30.93
67377;BME280;54261;46.086;6.588;2023-07-16T22:33:50;92867.38;;;24.81;31.22
67377;BME280;54261;46.086;6.588;2023-07-16T22:38:52;92870.59;;;24.69;30.89
67377;BME280;54261;46.086;6.588;2023-07-16T22:43:54;92869.78;;;24.72;30.79
67377;BME280;54261;46.086;6.588;2023-07-16T22:48:56;92903.19;;;24.45;30.95
67377;BME280;54261;46.086;6.588;2023-07-16T22:53:58;92913.84;;;23.52;32.46
67377;BME280;54261;46.086;6.588;2023-07-16T22:59:01;92905.25;;;23.72;31.83
67377;BME280;54261;46.086;6.588;2023-07-16T23:04:03;92922.84;;;23.49;32.55
67377;BME280;54261;46.086;6.588;2023-07-16T23:09:05;92923.09;;;23.00;33.71
67377;BME280;54261;46.086;6.588;2023-07-16T23:14:08;92935.25;;;23.14;33.60
67377;BME280;54261;46.086;6.588;2023-07-16T23:19:10;92930.25;;;23.41;32.96
67377;BME280;54261;46.086;6.588;2023-07-16T23:24:12;92934.16;;;23.44;33.13
67377;BME280;54261;46.086;6.588;2023-07-16T23:29:13;92935.72;;;22.34;34.99
67377;BME280;54261;46.086;6.588;2023-07-16T23:34:15;92937.81;;;22.59;34.47
67377;BME280;54261;46.086;6.588;2023-07-16T23:39:17;92950.09;;;22.24;35.25
67377;BME280;54261;46.086;6.588;2023-07-16T23:44:19;92952.50;;;22.36;35.66
67377;BME280;54261;46.086;6.588;2023-07-16T23:49:21;92919.94;;;22.83;34.35
67377;BME280;54261;46.086;6.588;2023-07-16T23:54:23;92929.47;;;23.30;33.28
67377;BME280;54261;46.086;6.588;2023-07-16T23:59:25;92938.88;;;23.54;33.38
